VLG1601 LEZL-LEBL
Flight info
| Callsign | VLG1601 |
|---|---|
| Flight time | 1h 19m |
| Altitude | 32000 |
| Route | HIJ M30 PARKA N858 TLD L184 RBO N870 PONEN/N0465F300 T600 CASPE |
| Aircraft | A320/M-SDE3FGHIRWY/LB1 |
Departure
| Time | 2026-04-28 19:12 |
|---|---|
| Airport | Seville Airport (LEZL) |
Arrival
| Time | 2026-04-28 20:32 |
|---|---|
| Airport | Josep Tarradellas Barcelona-El Prat Airport (LEBL) |
| Time | Latitude | Longitude | Altitude | Speed | Heading |
|---|---|---|---|---|---|
| 2026-04-28 18:55 | 37.42277 | -5.89882 | 94 ft | 0 kts | 315° |
| 2026-04-28 19:01 | 37.42262 | -5.89863 | 94 ft | 4 kts | 315° |
| 2026-04-28 19:01 | 37.42246 | -5.89843 | 92 ft | 2 kts | 315° |
| 2026-04-28 19:02 | 37.42230 | -5.89822 | 93 ft | 4 kts | 330° |
| 2026-04-28 19:02 | 37.42213 | -5.89823 | 94 ft | 4 kts | 42° |
| 2026-04-28 19:02 | 37.42194 | -5.89846 | 94 ft | 4 kts | 45° |
| 2026-04-28 19:02 | 37.42188 | -5.89855 | 94 ft | 0 kts | 45° |
| 2026-04-28 19:05 | 37.42190 | -5.89851 | 94 ft | 2 kts | 45° |
| 2026-04-28 19:05 | 37.42203 | -5.89836 | 94 ft | 3 kts | 45° |
| 2026-04-28 19:06 | 37.42224 | -5.89808 | 93 ft | 5 kts | 46° |
| 2026-04-28 19:06 | 37.42243 | -5.89783 | 94 ft | 6 kts | 45° |
| 2026-04-28 19:06 | 37.42253 | -5.89708 | 95 ft | 8 kts | 122° |
| 2026-04-28 19:06 | 37.42216 | -5.89658 | 96 ft | 9 kts | 135° |
| 2026-04-28 19:07 | 37.42192 | -5.89627 | 95 ft | 8 kts | 134° |
| 2026-04-28 19:07 | 37.42154 | -5.89578 | 96 ft | 7 kts | 134° |
| 2026-04-28 19:07 | 37.42123 | -5.89538 | 97 ft | 6 kts | 134° |
| 2026-04-28 19:07 | 37.42095 | -5.89502 | 98 ft | 6 kts | 135° |
| 2026-04-28 19:08 | 37.42063 | -5.89462 | 98 ft | 7 kts | 135° |
| 2026-04-28 19:08 | 37.42025 | -5.89412 | 100 ft | 8 kts | 133° |
| 2026-04-28 19:08 | 37.41988 | -5.89343 | 100 ft | 11 kts | 107° |
| 2026-04-28 19:08 | 37.41985 | -5.89230 | 101 ft | 15 kts | 90° |
| 2026-04-28 19:09 | 37.41985 | -5.89090 | 101 ft | 16 kts | 90° |
| 2026-04-28 19:09 | 37.41986 | -5.88951 | 102 ft | 16 kts | 89° |
| 2026-04-28 19:09 | 37.41986 | -5.88812 | 103 ft | 16 kts | 91° |
| 2026-04-28 19:09 | 37.41985 | -5.88670 | 103 ft | 17 kts | 89° |
| 2026-04-28 19:10 | 37.41986 | -5.88519 | 104 ft | 18 kts | 89° |
| 2026-04-28 19:10 | 37.41986 | -5.88355 | 105 ft | 20 kts | 90° |
| 2026-04-28 19:10 | 37.41988 | -5.88154 | 106 ft | 25 kts | 89° |
| 2026-04-28 19:10 | 37.41987 | -5.87924 | 107 ft | 27 kts | 90° |
| 2026-04-28 19:11 | 37.41987 | -5.87684 | 109 ft | 28 kts | 84° |
| 2026-04-28 19:11 | 37.41946 | -5.87452 | 112 ft | 25 kts | 133° |
| 2026-04-28 19:11 | 37.41817 | -5.87497 | 113 ft | 21 kts | 244° |
| 2026-04-28 19:11 | 37.41799 | -5.87696 | 113 ft | 27 kts | 269° |
| 2026-04-28 19:12 | 37.41795 | -5.88162 | 107 ft | 86 kts | 269° |
| 2026-04-28 19:12 | 37.41791 | -5.89148 | 101 ft | 137 kts | 271° |
| 2026-04-28 19:12 | 37.41794 | -5.90472 | 441 ft | 151 kts | 271° |
| 2026-04-28 19:12 | 37.41814 | -5.91763 | 1154 ft | 145 kts | 266° |
| 2026-04-28 19:13 | 37.41989 | -5.93058 | 1603 ft | 163 kts | 295° |
| 2026-04-28 19:13 | 37.42791 | -5.94153 | 2040 ft | 182 kts | 317° |
| 2026-04-28 19:13 | 37.43829 | -5.95232 | 2312 ft | 204 kts | 319° |
| 2026-04-28 19:13 | 37.44998 | -5.96435 | 2595 ft | 230 kts | 317° |
| 2026-04-28 19:14 | 37.46283 | -5.97805 | 2998 ft | 254 kts | 317° |
| 2026-04-28 19:14 | 37.47663 | -5.99324 | 3593 ft | 270 kts | 317° |
| 2026-04-28 19:14 | 37.49086 | -6.00931 | 4418 ft | 278 kts | 317° |
| 2026-04-28 19:14 | 37.50523 | -6.02586 | 5313 ft | 282 kts | 316° |
| 2026-04-28 19:15 | 37.51973 | -6.04275 | 6227 ft | 285 kts | 316° |
| 2026-04-28 19:15 | 37.53427 | -6.05983 | 7080 ft | 288 kts | 315° |
| 2026-04-28 19:15 | 37.54901 | -6.07727 | 7935 ft | 291 kts | 315° |
| 2026-04-28 19:15 | 37.55883 | -6.08892 | 8525 ft | 293 kts | 316° |
| 2026-04-28 19:16 | 37.58253 | -6.10599 | 9658 ft | 302 kts | 345° |
| 2026-04-28 19:16 | 37.60373 | -6.10708 | 10272 ft | 316 kts | 9° |
| 2026-04-28 19:16 | 37.62451 | -6.09595 | 10478 ft | 339 kts | 37° |
| 2026-04-28 19:16 | 37.64274 | -6.07608 | 10620 ft | 362 kts | 43° |
| 2026-04-28 19:17 | 37.66188 | -6.05443 | 11020 ft | 374 kts | 42° |
| 2026-04-28 19:17 | 37.68147 | -6.03232 | 11654 ft | 379 kts | 42° |
| 2026-04-28 19:17 | 37.70130 | -6.01009 | 12331 ft | 383 kts | 41° |
| 2026-04-28 19:17 | 37.72136 | -5.98773 | 13015 ft | 386 kts | 41° |
| 2026-04-28 19:18 | 37.74163 | -5.96522 | 13673 ft | 390 kts | 41° |
| 2026-04-28 19:18 | 37.76206 | -5.94257 | 14244 ft | 393 kts | 41° |
| 2026-04-28 19:18 | 37.78273 | -5.91961 | 14801 ft | 397 kts | 41° |
| 2026-04-28 19:18 | 37.80352 | -5.89646 | 15359 ft | 400 kts | 41° |
| 2026-04-28 19:19 | 37.82446 | -5.87309 | 15905 ft | 403 kts | 41° |
| 2026-04-28 19:19 | 37.84562 | -5.84945 | 16436 ft | 407 kts | 41° |
| 2026-04-28 19:19 | 37.86694 | -5.82562 | 17001 ft | 411 kts | 41° |
| 2026-04-28 19:19 | 37.88845 | -5.80160 | 17551 ft | 414 kts | 41° |
| 2026-04-28 19:20 | 37.91013 | -5.77731 | 18113 ft | 418 kts | 41° |
| 2026-04-28 19:20 | 37.93198 | -5.75277 | 18604 ft | 422 kts | 41° |
| 2026-04-28 19:20 | 37.95374 | -5.72835 | 19095 ft | 425 kts | 41° |
| 2026-04-28 19:20 | 37.97598 | -5.70340 | 19577 ft | 429 kts | 41° |
| 2026-04-28 19:21 | 37.99836 | -5.67822 | 20083 ft | 432 kts | 41° |
| 2026-04-28 19:21 | 38.02098 | -5.65279 | 20552 ft | 435 kts | 41° |
| 2026-04-28 19:21 | 38.04373 | -5.62723 | 20989 ft | 439 kts | 41° |
| 2026-04-28 19:21 | 38.06668 | -5.60135 | 21474 ft | 442 kts | 42° |
| 2026-04-28 19:22 | 38.08970 | -5.57536 | 21878 ft | 446 kts | 41° |
| 2026-04-28 19:22 | 38.10510 | -5.55797 | 22156 ft | 448 kts | 42° |
| 2026-04-28 19:22 | 38.13641 | -5.52265 | 22691 ft | 453 kts | 42° |
| 2026-04-28 19:22 | 38.16009 | -5.49592 | 23087 ft | 456 kts | 42° |
| 2026-04-28 19:23 | 38.18387 | -5.46903 | 23488 ft | 459 kts | 42° |
| 2026-04-28 19:23 | 38.20781 | -5.44194 | 23840 ft | 462 kts | 42° |
| 2026-04-28 19:23 | 38.23192 | -5.41463 | 24186 ft | 464 kts | 42° |
| 2026-04-28 19:23 | 38.25603 | -5.38731 | 24540 ft | 466 kts | 42° |
| 2026-04-28 19:24 | 38.28029 | -5.35978 | 24897 ft | 468 kts | 42° |
| 2026-04-28 19:24 | 38.30471 | -5.33204 | 25241 ft | 470 kts | 42° |
| 2026-04-28 19:24 | 38.32888 | -5.30454 | 25620 ft | 472 kts | 42° |
| 2026-04-28 19:24 | 38.35336 | -5.27665 | 25985 ft | 474 kts | 42° |
| 2026-04-28 19:25 | 38.37797 | -5.24860 | 26342 ft | 476 kts | 42° |
| 2026-04-28 19:25 | 38.40270 | -5.22036 | 26691 ft | 478 kts | 42° |
| 2026-04-28 19:25 | 38.42746 | -5.19199 | 27042 ft | 480 kts | 42° |
| 2026-04-28 19:26 | 38.47892 | -5.14092 | 27887 ft | 479 kts | 29° |
| 2026-04-28 19:26 | 38.50877 | -5.12328 | 28392 ft | 478 kts | 19° |
| 2026-04-28 19:26 | 38.54072 | -5.11200 | 28902 ft | 476 kts | 9° |
| 2026-04-28 19:26 | 38.57355 | -5.10755 | 29386 ft | 474 kts | 359° |
| 2026-04-28 19:27 | 38.60648 | -5.10960 | 29854 ft | 472 kts | 354° |
| 2026-04-28 19:27 | 38.63923 | -5.11300 | 30288 ft | 472 kts | 354° |
| 2026-04-28 19:27 | 38.67192 | -5.11635 | 30722 ft | 471 kts | 354° |
| 2026-04-28 19:27 | 38.70453 | -5.11966 | 31171 ft | 469 kts | 354° |
| 2026-04-28 19:28 | 38.73711 | -5.12296 | 31631 ft | 468 kts | 354° |
| 2026-04-28 19:28 | 38.76958 | -5.12623 | 31873 ft | 468 kts | 354° |
| 2026-04-28 19:28 | 38.83464 | -5.13286 | 31923 ft | 475 kts | 354° |
| 2026-04-28 19:29 | 38.89001 | -5.13856 | 31926 ft | 477 kts | 354° |
| 2026-04-28 19:29 | 38.96702 | -5.14213 | 31917 ft | 478 kts | 5° |
| 2026-04-28 19:30 | 39.03129 | -5.12035 | 31923 ft | 480 kts | 24° |
| 2026-04-28 19:30 | 39.08883 | -5.07655 | 31918 ft | 481 kts | 33° |
| 2026-04-28 19:31 | 39.14505 | -5.02997 | 31916 ft | 481 kts | 33° |
| 2026-04-28 19:31 | 39.20145 | -4.98330 | 31920 ft | 481 kts | 33° |
| 2026-04-28 19:32 | 39.25780 | -4.93665 | 31916 ft | 481 kts | 32° |
| 2026-04-28 19:32 | 39.31403 | -4.88989 | 31930 ft | 481 kts | 32° |
| 2026-04-28 19:33 | 39.37023 | -4.84294 | 31930 ft | 481 kts | 32° |
| 2026-04-28 19:33 | 39.42643 | -4.79593 | 31919 ft | 481 kts | 32° |
| 2026-04-28 19:34 | 39.48259 | -4.74890 | 31915 ft | 481 kts | 32° |
| 2026-04-28 19:34 | 39.53850 | -4.70204 | 31917 ft | 482 kts | 32° |
| 2026-04-28 19:35 | 39.59478 | -4.65471 | 31902 ft | 482 kts | 32° |
| 2026-04-28 19:35 | 39.65114 | -4.60728 | 31899 ft | 482 kts | 32° |
| 2026-04-28 19:36 | 39.70746 | -4.55983 | 31895 ft | 483 kts | 32° |
| 2026-04-28 19:36 | 39.76378 | -4.51222 | 31892 ft | 483 kts | 32° |
| 2026-04-28 19:37 | 39.81066 | -4.47245 | 31897 ft | 483 kts | 32° |
| 2026-04-28 19:37 | 39.87647 | -4.41656 | 31888 ft | 483 kts | 32° |
| 2026-04-28 19:38 | 39.93282 | -4.36870 | 31887 ft | 484 kts | 32° |
| 2026-04-28 19:38 | 39.98683 | -4.31654 | 31896 ft | 484 kts | 43° |
| 2026-04-28 19:39 | 40.03584 | -4.25696 | 31889 ft | 485 kts | 43° |
| 2026-04-28 19:39 | 40.08566 | -4.19658 | 31883 ft | 486 kts | 43° |
| 2026-04-28 19:40 | 40.13477 | -4.13679 | 31879 ft | 486 kts | 43° |
| 2026-04-28 19:40 | 40.18420 | -4.07649 | 31889 ft | 486 kts | 43° |
| 2026-04-28 19:41 | 40.23360 | -4.01604 | 31884 ft | 486 kts | 43° |
| 2026-04-28 19:41 | 40.28299 | -3.95556 | 31884 ft | 486 kts | 43° |
| 2026-04-28 19:42 | 40.33246 | -3.89489 | 31888 ft | 487 kts | 43° |
| 2026-04-28 19:42 | 40.37350 | -3.84438 | 31888 ft | 487 kts | 43° |
| 2026-04-28 19:43 | 40.43118 | -3.77311 | 31891 ft | 487 kts | 43° |
| 2026-04-28 19:43 | 40.48055 | -3.71216 | 31886 ft | 488 kts | 43° |
| 2026-04-28 19:44 | 40.53003 | -3.65106 | 31886 ft | 488 kts | 43° |
| 2026-04-28 19:44 | 40.57943 | -3.58971 | 31887 ft | 488 kts | 43° |
| 2026-04-28 19:45 | 40.62046 | -3.53871 | 31889 ft | 489 kts | 43° |
| 2026-04-28 19:45 | 40.66986 | -3.47717 | 31890 ft | 489 kts | 43° |
| 2026-04-28 19:46 | 40.71919 | -3.41548 | 31885 ft | 489 kts | 43° |
| 2026-04-28 19:46 | 40.76848 | -3.35374 | 31889 ft | 489 kts | 43° |
| 2026-04-28 19:47 | 40.81760 | -3.29131 | 31890 ft | 489 kts | 47° |
| 2026-04-28 19:47 | 40.85526 | -3.21761 | 31887 ft | 488 kts | 66° |
| 2026-04-28 19:48 | 40.87636 | -3.13278 | 31896 ft | 487 kts | 77° |
| 2026-04-28 19:48 | 40.89342 | -3.04610 | 31885 ft | 488 kts | 76° |
| 2026-04-28 19:49 | 40.91055 | -2.95917 | 31891 ft | 489 kts | 76° |
| 2026-04-28 19:49 | 40.92758 | -2.87216 | 31899 ft | 489 kts | 77° |
| 2026-04-28 19:50 | 40.95290 | -2.74145 | 31905 ft | 489 kts | 77° |
| 2026-04-28 19:51 | 40.96973 | -2.65425 | 31905 ft | 489 kts | 77° |
| 2026-04-28 19:51 | 40.98650 | -2.56685 | 31907 ft | 489 kts | 77° |
| 2026-04-28 19:52 | 41.00324 | -2.47949 | 31910 ft | 490 kts | 77° |
| 2026-04-28 19:52 | 41.01974 | -2.39260 | 31916 ft | 490 kts | 77° |
| 2026-04-28 19:53 | 41.03628 | -2.30495 | 31923 ft | 490 kts | 77° |
| 2026-04-28 19:53 | 41.05286 | -2.21747 | 31921 ft | 490 kts | 77° |
| 2026-04-28 19:54 | 41.06942 | -2.12986 | 31917 ft | 490 kts | 77° |
| 2026-04-28 19:54 | 41.08580 | -2.04215 | 31918 ft | 490 kts | 77° |
| 2026-04-28 19:55 | 41.10205 | -1.95447 | 31918 ft | 490 kts | 77° |
| 2026-04-28 19:55 | 41.11831 | -1.86681 | 31921 ft | 489 kts | 77° |
| 2026-04-28 19:56 | 41.13446 | -1.77966 | 31911 ft | 489 kts | 77° |
| 2026-04-28 19:56 | 41.15056 | -1.69217 | 31905 ft | 482 kts | 77° |
| 2026-04-28 19:57 | 41.16627 | -1.60648 | 31897 ft | 476 kts | 77° |
| 2026-04-28 19:57 | 41.18191 | -1.52062 | 31897 ft | 485 kts | 77° |
| 2026-04-28 19:58 | 41.19771 | -1.43313 | 31900 ft | 488 kts | 77° |
| 2026-04-28 19:58 | 41.21353 | -1.34522 | 31897 ft | 489 kts | 77° |
| 2026-04-28 19:59 | 41.22932 | -1.25750 | 31910 ft | 489 kts | 77° |
| 2026-04-28 19:59 | 41.24497 | -1.16954 | 31912 ft | 489 kts | 77° |
| 2026-04-28 20:00 | 41.26053 | -1.08157 | 31899 ft | 488 kts | 77° |
| 2026-04-28 20:00 | 41.27603 | -0.99372 | 31906 ft | 489 kts | 77° |
| 2026-04-28 20:01 | 41.29153 | -0.90570 | 31902 ft | 489 kts | 77° |
| 2026-04-28 20:01 | 41.30699 | -0.81779 | 31905 ft | 488 kts | 77° |
| 2026-04-28 20:02 | 41.32228 | -0.73029 | 31897 ft | 488 kts | 77° |
| 2026-04-28 20:02 | 41.33761 | -0.64190 | 31901 ft | 487 kts | 78° |
| 2026-04-28 20:03 | 41.34944 | -0.55388 | 31916 ft | 485 kts | 89° |
| 2026-04-28 20:03 | 41.34452 | -0.46470 | 31873 ft | 483 kts | 101° |
| 2026-04-28 20:04 | 41.33455 | -0.37634 | 31890 ft | 483 kts | 100° |
| 2026-04-28 20:04 | 41.32956 | -0.33136 | 31912 ft | 483 kts | 100° |
| 2026-04-28 20:05 | 41.32212 | -0.25941 | 32010 ft | 457 kts | 98° |
| 2026-04-28 20:05 | 41.31263 | -0.17749 | 32008 ft | 445 kts | 99° |
| 2026-04-28 20:05 | 41.30778 | -0.13702 | 31668 ft | 442 kts | 99° |
| 2026-04-28 20:06 | 41.30296 | -0.09656 | 30051 ft | 447 kts | 99° |
| 2026-04-28 20:06 | 41.29808 | -0.05527 | 28178 ft | 456 kts | 99° |
| 2026-04-28 20:06 | 41.29317 | -0.01310 | 26681 ft | 466 kts | 98° |
| 2026-04-28 20:06 | 41.28823 | 0.02951 | 25874 ft | 463 kts | 98° |
| 2026-04-28 20:07 | 41.28340 | 0.07125 | 25462 ft | 450 kts | 98° |
| 2026-04-28 20:07 | 41.28027 | 0.09818 | 25300 ft | 439 kts | 98° |
| 2026-04-28 20:07 | 41.27416 | 0.15060 | 24962 ft | 420 kts | 99° |
| 2026-04-28 20:07 | 41.27010 | 0.18849 | 24710 ft | 407 kts | 95° |
| 2026-04-28 20:08 | 41.26997 | 0.22543 | 24460 ft | 396 kts | 85° |
| 2026-04-28 20:08 | 41.27225 | 0.26160 | 24210 ft | 391 kts | 85° |
| 2026-04-28 20:08 | 41.27445 | 0.29751 | 24001 ft | 389 kts | 85° |
| 2026-04-28 20:08 | 41.27658 | 0.33331 | 23684 ft | 387 kts | 85° |
| 2026-04-28 20:09 | 41.27868 | 0.36888 | 23338 ft | 385 kts | 85° |
| 2026-04-28 20:09 | 41.28074 | 0.40426 | 22983 ft | 383 kts | 85° |
| 2026-04-28 20:09 | 41.28281 | 0.43953 | 22637 ft | 382 kts | 85° |
| 2026-04-28 20:09 | 41.28486 | 0.47462 | 22292 ft | 379 kts | 85° |
| 2026-04-28 20:10 | 41.28689 | 0.50945 | 21947 ft | 377 kts | 85° |
| 2026-04-28 20:10 | 41.28889 | 0.54362 | 21622 ft | 375 kts | 85° |
| 2026-04-28 20:10 | 41.29091 | 0.57805 | 21272 ft | 373 kts | 85° |
| 2026-04-28 20:10 | 41.29288 | 0.61231 | 20942 ft | 371 kts | 85° |
| 2026-04-28 20:11 | 41.29483 | 0.64649 | 20598 ft | 369 kts | 85° |
| 2026-04-28 20:11 | 41.29461 | 0.68037 | 20327 ft | 367 kts | 99° |
| 2026-04-28 20:11 | 41.28730 | 0.71276 | 20077 ft | 366 kts | 112° |
| 2026-04-28 20:11 | 41.27769 | 0.74411 | 19828 ft | 366 kts | 112° |
| 2026-04-28 20:12 | 41.26796 | 0.77532 | 19576 ft | 365 kts | 112° |
| 2026-04-28 20:12 | 41.25814 | 0.80644 | 19317 ft | 365 kts | 112° |
| 2026-04-28 20:12 | 41.24836 | 0.83741 | 19069 ft | 363 kts | 112° |
| 2026-04-28 20:12 | 41.24188 | 0.85793 | 18911 ft | 361 kts | 112° |
| 2026-04-28 20:13 | 41.22896 | 0.89896 | 18578 ft | 359 kts | 112° |
| 2026-04-28 20:13 | 41.21941 | 0.92938 | 18321 ft | 358 kts | 112° |
| 2026-04-28 20:13 | 41.20983 | 0.95985 | 18079 ft | 357 kts | 112° |
| 2026-04-28 20:13 | 41.20025 | 0.99026 | 17824 ft | 355 kts | 112° |
| 2026-04-28 20:14 | 41.19086 | 1.02005 | 17577 ft | 353 kts | 112° |
| 2026-04-28 20:14 | 41.18134 | 1.05020 | 17326 ft | 352 kts | 112° |
| 2026-04-28 20:14 | 41.17190 | 1.08008 | 17078 ft | 350 kts | 112° |
| 2026-04-28 20:14 | 41.16251 | 1.10981 | 16827 ft | 349 kts | 112° |
| 2026-04-28 20:15 | 41.15311 | 1.13946 | 16574 ft | 347 kts | 112° |
| 2026-04-28 20:15 | 41.14375 | 1.16892 | 16324 ft | 346 kts | 112° |
| 2026-04-28 20:15 | 41.13440 | 1.19829 | 16073 ft | 344 kts | 113° |
| 2026-04-28 20:15 | 41.12509 | 1.22749 | 15813 ft | 343 kts | 113° |
| 2026-04-28 20:16 | 41.11582 | 1.25653 | 15573 ft | 341 kts | 113° |
| 2026-04-28 20:16 | 41.10659 | 1.28548 | 15334 ft | 340 kts | 113° |
| 2026-04-28 20:16 | 41.09750 | 1.31396 | 15075 ft | 339 kts | 113° |
| 2026-04-28 20:16 | 41.08834 | 1.34268 | 14822 ft | 338 kts | 113° |
| 2026-04-28 20:17 | 41.07922 | 1.37125 | 14578 ft | 336 kts | 113° |
| 2026-04-28 20:17 | 41.07010 | 1.39983 | 14323 ft | 335 kts | 113° |
| 2026-04-28 20:17 | 41.06100 | 1.42826 | 14065 ft | 334 kts | 113° |
| 2026-04-28 20:17 | 41.05195 | 1.45652 | 13811 ft | 333 kts | 113° |
| 2026-04-28 20:18 | 41.04290 | 1.48470 | 13578 ft | 331 kts | 113° |
| 2026-04-28 20:18 | 41.03692 | 1.50330 | 13405 ft | 331 kts | 113° |
| 2026-04-28 20:18 | 41.02499 | 1.54034 | 13071 ft | 329 kts | 113° |
| 2026-04-28 20:18 | 41.01602 | 1.56815 | 12662 ft | 328 kts | 113° |
| 2026-04-28 20:19 | 41.00702 | 1.59604 | 12078 ft | 330 kts | 113° |
| 2026-04-28 20:19 | 40.99806 | 1.62377 | 11583 ft | 328 kts | 113° |
| 2026-04-28 20:19 | 40.98915 | 1.65140 | 11157 ft | 321 kts | 113° |
| 2026-04-28 20:19 | 40.98040 | 1.67843 | 10387 ft | 316 kts | 113° |
| 2026-04-28 20:20 | 40.97201 | 1.70429 | 10182 ft | 294 kts | 113° |
| 2026-04-28 20:20 | 40.96413 | 1.72861 | 9867 ft | 280 kts | 113° |
| 2026-04-28 20:20 | 40.95648 | 1.75227 | 9757 ft | 280 kts | 113° |
| 2026-04-28 20:20 | 40.94879 | 1.77595 | 9596 ft | 281 kts | 113° |
| 2026-04-28 20:21 | 40.94103 | 1.79985 | 8877 ft | 285 kts | 113° |
| 2026-04-28 20:21 | 40.93332 | 1.82361 | 8354 ft | 280 kts | 113° |
| 2026-04-28 20:21 | 40.92588 | 1.84655 | 8167 ft | 261 kts | 113° |
| 2026-04-28 20:21 | 40.91907 | 1.86791 | 8047 ft | 243 kts | 109° |
| 2026-04-28 20:22 | 40.91709 | 1.88903 | 7941 ft | 225 kts | 82° |
| 2026-04-28 20:22 | 40.92190 | 1.90777 | 7813 ft | 211 kts | 57° |
| 2026-04-28 20:22 | 40.93166 | 1.92163 | 7516 ft | 205 kts | 33° |
| 2026-04-28 20:22 | 40.94452 | 1.92931 | 7186 ft | 203 kts | 19° |
| 2026-04-28 20:23 | 40.95788 | 1.93527 | 6789 ft | 203 kts | 18° |
| 2026-04-28 20:23 | 40.97119 | 1.94124 | 6405 ft | 198 kts | 19° |
| 2026-04-28 20:23 | 40.98386 | 1.94695 | 6189 ft | 189 kts | 19° |
| 2026-04-28 20:23 | 40.99613 | 1.95249 | 5946 ft | 184 kts | 19° |
| 2026-04-28 20:24 | 41.00584 | 1.95688 | 5757 ft | 181 kts | 19° |
| 2026-04-28 20:24 | 41.01326 | 1.96023 | 5615 ft | 178 kts | 19° |
| 2026-04-28 20:24 | 41.02495 | 1.96551 | 5373 ft | 175 kts | 19° |
| 2026-04-28 20:24 | 41.03625 | 1.97062 | 5148 ft | 168 kts | 19° |
| 2026-04-28 20:25 | 41.04713 | 1.97554 | 4926 ft | 162 kts | 19° |
| 2026-04-28 20:25 | 41.05762 | 1.98029 | 4713 ft | 157 kts | 19° |
| 2026-04-28 20:25 | 41.06780 | 1.98489 | 4509 ft | 152 kts | 19° |
| 2026-04-28 20:25 | 41.07773 | 1.98939 | 4306 ft | 150 kts | 19° |
| 2026-04-28 20:26 | 41.08756 | 1.99385 | 4110 ft | 149 kts | 19° |
| 2026-04-28 20:26 | 41.09731 | 1.99826 | 3914 ft | 148 kts | 19° |
| 2026-04-28 20:26 | 41.10699 | 2.00265 | 3725 ft | 147 kts | 19° |
| 2026-04-28 20:26 | 41.11667 | 2.00704 | 3523 ft | 147 kts | 19° |
| 2026-04-28 20:27 | 41.12632 | 2.01141 | 3329 ft | 146 kts | 19° |
| 2026-04-28 20:27 | 41.13593 | 2.01577 | 3135 ft | 146 kts | 19° |
| 2026-04-28 20:27 | 41.14552 | 2.02012 | 2937 ft | 145 kts | 19° |
| 2026-04-28 20:27 | 41.15508 | 2.02446 | 2749 ft | 145 kts | 19° |
| 2026-04-28 20:28 | 41.16459 | 2.02878 | 2556 ft | 145 kts | 19° |
| 2026-04-28 20:28 | 41.17412 | 2.03311 | 2364 ft | 144 kts | 19° |
| 2026-04-28 20:28 | 41.18360 | 2.03741 | 2171 ft | 144 kts | 19° |
| 2026-04-28 20:28 | 41.19305 | 2.04171 | 1981 ft | 143 kts | 19° |
| 2026-04-28 20:29 | 41.20243 | 2.04597 | 1804 ft | 139 kts | 19° |
| 2026-04-28 20:29 | 41.21154 | 2.05011 | 1612 ft | 137 kts | 19° |
| 2026-04-28 20:29 | 41.22045 | 2.05417 | 1429 ft | 137 kts | 19° |
| 2026-04-28 20:29 | 41.22943 | 2.05825 | 1255 ft | 136 kts | 19° |
| 2026-04-28 20:30 | 41.23839 | 2.06233 | 1068 ft | 136 kts | 19° |
| 2026-04-28 20:30 | 41.24731 | 2.06638 | 890 ft | 135 kts | 19° |
| 2026-04-28 20:30 | 41.25623 | 2.07034 | 727 ft | 135 kts | 18° |
| 2026-04-28 20:30 | 41.26511 | 2.07440 | 528 ft | 135 kts | 19° |
| 2026-04-28 20:31 | 41.27393 | 2.07855 | 317 ft | 134 kts | 19° |
| 2026-04-28 20:31 | 41.28274 | 2.08262 | 157 ft | 133 kts | 19° |
| 2026-04-28 20:31 | 41.29152 | 2.08663 | 23 ft | 129 kts | 19° |
| 2026-04-28 20:31 | 41.29860 | 2.08988 | 18 ft | 86 kts | 17° |
| 2026-04-28 20:32 | 41.30265 | 2.09162 | 15 ft | 37 kts | 19° |
| 2026-04-28 20:32 | 41.30492 | 2.09266 | 18 ft | 34 kts | 19° |
| 2026-04-28 20:32 | 41.30650 | 2.09172 | 18 ft | 26 kts | 320° |
| 2026-04-28 20:32 | 41.30651 | 2.09078 | 18 ft | 11 kts | 209° |
| 2026-04-28 20:33 | 41.30566 | 2.09035 | 19 ft | 15 kts | 198° |
| 2026-04-28 20:33 | 41.30457 | 2.08986 | 18 ft | 18 kts | 198° |
| 2026-04-28 20:33 | 41.30373 | 2.08949 | 18 ft | 20 kts | 199° |
| 2026-04-28 20:33 | 41.30231 | 2.08879 | 20 ft | 23 kts | 199° |
| 2026-04-28 20:34 | 41.30085 | 2.08766 | 18 ft | 26 kts | 219° |
| 2026-04-28 20:34 | 41.29927 | 2.08508 | 20 ft | 29 kts | 244° |
| 2026-04-28 20:34 | 41.29855 | 2.08357 | 19 ft | 28 kts | 230° |
| 2026-04-28 20:34 | 41.29722 | 2.08208 | 18 ft | 11 kts | 215° |
| 2026-04-28 20:35 | 41.29655 | 2.08195 | 18 ft | 11 kts | 185° |
| 2026-04-28 20:35 | 41.29609 | 2.08107 | 18 ft | 13 kts | 240° |
| 2026-04-28 20:35 | 41.29565 | 2.07980 | 18 ft | 17 kts | 247° |
| 2026-04-28 20:35 | 41.29524 | 2.07858 | 18 ft | 16 kts | 245° |
| 2026-04-28 20:36 | 41.29473 | 2.07713 | 18 ft | 18 kts | 245° |
| 2026-04-28 20:36 | 41.29417 | 2.07554 | 18 ft | 14 kts | 245° |
| 2026-04-28 20:36 | 41.29354 | 2.07544 | 18 ft | 12 kts | 155° |
| 2026-04-28 20:36 | 41.29269 | 2.07599 | 19 ft | 15 kts | 150° |
| 2026-04-28 20:37 | 41.29238 | 2.07686 | 18 ft | 4 kts | 102° |
| 2026-04-28 20:37 | 41.29232 | 2.07724 | 18 ft | 0 kts | 101° |
| 2026-04-28 20:37 | 41.29230 | 2.07737 | 18 ft | 1 kts | 102° |